Terminal Aerodrome Forecast
Issued by NWS

Home | Current Version | Previous Version | Text Only | Print | Product List | Glossary On
Versions: 1 2 3 4 5 6 7 8 9 10 11 12 13 14 15 16 17 18 19 20
000
FTUS42 KFFC 031601 AAA
TAFRYY
TAF AMD
KRYY 031601Z 0316/0412 09008KT 6SM -RA BR OVC008
      TEMPO 0316/0318 2SM RA OVC004
     FM031800 09007KT P6SM OVC005
     FM032100 09007KT P6SM SCT005 BKN012
     FM040000 08007KT P6SM OVC008
     FM040500 11006KT 5SM BR OVC004
     FM041000 15006KT P6SM OVC008=

USA.gov is the U.S. government's official web portal to all federal, state and local government web resources and services.